sensor_id;sensor_type;location;lat;lon;timestamp;P1;durP1;ratioP1;P2;durP2;ratioP2
48623;SDS011;34422;45.802;16.114;2022-07-29T00:01:35;7.00;;;4.25;;
48623;SDS011;34422;45.802;16.114;2022-07-29T00:04:02;10.63;;;4.70;;
48623;SDS011;34422;45.802;16.114;2022-07-29T00:06:29;7.55;;;4.30;;
48623;SDS011;34422;45.802;16.114;2022-07-29T00:08:56;6.38;;;4.00;;
48623;SDS011;34422;45.802;16.114;2022-07-29T00:11:22;6.70;;;4.60;;
48623;SDS011;34422;45.802;16.114;2022-07-29T00:13:49;7.80;;;4.43;;
48623;SDS011;34422;45.802;16.114;2022-07-29T00:16:16;6.03;;;4.10;;
48623;SDS011;34422;45.802;16.114;2022-07-29T00:18:42;9.20;;;5.07;;
48623;SDS011;34422;45.802;16.114;2022-07-29T00:21:09;7.75;;;4.93;;
48623;SDS011;34422;45.802;16.114;2022-07-29T00:23:36;8.43;;;4.93;;
48623;SDS011;34422;45.802;16.114;2022-07-29T00:26:03;6.55;;;4.13;;
48623;SDS011;34422;45.802;16.114;2022-07-29T00:28:30;7.43;;;4.10;;
48623;SDS011;34422;45.802;16.114;2022-07-29T00:30:56;8.50;;;4.47;;
48623;SDS011;34422;45.802;16.114;2022-07-29T00:33:23;7.28;;;4.45;;
48623;SDS011;34422;45.802;16.114;2022-07-29T00:35:50;7.15;;;4.05;;
48623;SDS011;34422;45.802;16.114;2022-07-29T00:38:17;7.40;;;4.40;;
48623;SDS011;34422;45.802;16.114;2022-07-29T00:40:46;6.47;;;4.68;;
48623;SDS011;34422;45.802;16.114;2022-07-29T00:43:14;5.93;;;4.10;;
48623;SDS011;34422;45.802;16.114;2022-07-29T00:45:41;6.65;;;4.75;;
48623;SDS011;34422;45.802;16.114;2022-07-29T00:48:09;7.32;;;4.90;;
48623;SDS011;34422;45.802;16.114;2022-07-29T00:50:36;7.53;;;4.97;;
48623;SDS011;34422;45.802;16.114;2022-07-29T00:53:04;6.82;;;4.78;;
48623;SDS011;34422;45.802;16.114;2022-07-29T00:55:32;6.38;;;4.32;;
48623;SDS011;34422;45.802;16.114;2022-07-29T00:57:59;7.93;;;4.82;;
48623;SDS011;34422;45.802;16.114;2022-07-29T01:00:27;6.10;;;4.15;;
48623;SDS011;34422;45.802;16.114;2022-07-29T01:02:54;6.03;;;4.10;;
48623;SDS011;34422;45.802;16.114;2022-07-29T01:05:21;6.53;;;4.05;;
48623;SDS011;34422;45.802;16.114;2022-07-29T01:07:52;7.07;;;4.30;;
48623;SDS011;34422;45.802;16.114;2022-07-29T01:10:20;5.50;;;4.33;;
48623;SDS011;34422;45.802;16.114;2022-07-29T01:12:49;7.25;;;4.20;;
48623;SDS011;34422;45.802;16.114;2022-07-29T01:15:18;6.05;;;3.88;;
48623;SDS011;34422;45.802;16.114;2022-07-29T01:31:16;7.38;;;5.47;;
48623;SDS011;34422;45.802;16.114;2022-07-29T01:33:48;7.95;;;5.25;;
48623;SDS011;34422;45.802;16.114;2022-07-29T01:36:40;8.82;;;6.03;;
48623;SDS011;34422;45.802;16.114;2022-07-29T01:39:26;8.40;;;5.65;;
48623;SDS011;34422;45.802;16.114;2022-07-29T01:44:38;8.38;;;5.85;;
48623;SDS011;34422;45.802;16.114;2022-07-29T01:47:15;6.95;;;5.28;;
48623;SDS011;34422;45.802;16.114;2022-07-29T01:49:48;7.60;;;5.55;;
48623;SDS011;34422;45.802;16.114;2022-07-29T01:54:57;7.40;;;5.20;;
48623;SDS011;34422;45.802;16.114;2022-07-29T01:57:29;8.38;;;5.95;;
48623;SDS011;34422;45.802;16.114;2022-07-29T01:59:59;7.55;;;5.47;;
48623;SDS011;34422;45.802;16.114;2022-07-29T02:02:27;10.05;;;6.45;;
48623;SDS011;34422;45.802;16.114;2022-07-29T02:04:56;10.18;;;5.93;;
48623;SDS011;34422;45.802;16.114;2022-07-29T02:07:25;7.45;;;5.25;;
48623;SDS011;34422;45.802;16.114;2022-07-29T02:09:55;9.07;;;4.95;;
48623;SDS011;34422;45.802;16.114;2022-07-29T02:12:24;6.82;;;4.60;;
48623;SDS011;34422;45.802;16.114;2022-07-29T02:14:53;8.35;;;4.97;;
48623;SDS011;34422;45.802;16.114;2022-07-29T02:17:25;6.32;;;4.90;;
48623;SDS011;34422;45.802;16.114;2022-07-29T02:19:56;6.00;;;4.53;;
48623;SDS011;34422;45.802;16.114;2022-07-29T02:22:26;11.30;;;4.88;;
48623;SDS011;34422;45.802;16.114;2022-07-29T02:24:55;6.55;;;4.65;;
48623;SDS011;34422;45.802;16.114;2022-07-29T02:27:24;9.52;;;5.13;;
48623;SDS011;34422;45.802;16.114;2022-07-29T02:29:53;6.95;;;4.95;;
48623;SDS011;34422;45.802;16.114;2022-07-29T02:32:23;7.15;;;4.45;;
48623;SDS011;34422;45.802;16.114;2022-07-29T02:34:52;6.45;;;4.72;;
48623;SDS011;34422;45.802;16.114;2022-07-29T02:37:20;7.13;;;5.05;;
48623;SDS011;34422;45.802;16.114;2022-07-29T02:39:47;9.25;;;5.57;;
48623;SDS011;34422;45.802;16.114;2022-07-29T02:42:16;8.40;;;4.90;;
48623;SDS011;34422;45.802;16.114;2022-07-29T02:44:43;10.45;;;5.85;;
48623;SDS011;34422;45.802;16.114;2022-07-29T02:47:18;12.40;;;5.05;;
48623;SDS011;34422;45.802;16.114;2022-07-29T02:50:00;8.13;;;5.53;;
48623;SDS011;34422;45.802;16.114;2022-07-29T03:00:39;8.45;;;5.57;;
48623;SDS011;34422;45.802;16.114;2022-07-29T03:03:14;7.78;;;5.38;;
48623;SDS011;34422;45.802;16.114;2022-07-29T03:05:42;8.35;;;5.60;;
48623;SDS011;34422;45.802;16.114;2022-07-29T03:08:11;7.13;;;5.50;;
48623;SDS011;34422;45.802;16.114;2022-07-29T03:10:39;7.55;;;5.93;;
48623;SDS011;34422;45.802;16.114;2022-07-29T03:13:09;8.48;;;5.95;;
48623;SDS011;34422;45.802;16.114;2022-07-29T03:15:36;8.15;;;5.88;;
48623;SDS011;34422;45.802;16.114;2022-07-29T03:18:03;9.00;;;6.85;;
48623;SDS011;34422;45.802;16.114;2022-07-29T03:20:31;10.70;;;6.25;;
48623;SDS011;34422;45.802;16.114;2022-07-29T03:22:58;8.77;;;7.05;;
48623;SDS011;34422;45.802;16.114;2022-07-29T03:25:25;9.95;;;7.35;;
48623;SDS011;34422;45.802;16.114;2022-07-29T03:27:53;10.27;;;6.70;;
48623;SDS011;34422;45.802;16.114;2022-07-29T03:30:20;9.88;;;7.03;;
48623;SDS011;34422;45.802;16.114;2022-07-29T03:32:47;9.82;;;7.55;;
48623;SDS011;34422;45.802;16.114;2022-07-29T03:35:14;8.13;;;6.88;;
48623;SDS011;34422;45.802;16.114;2022-07-29T03:37:45;9.63;;;7.18;;
48623;SDS011;34422;45.802;16.114;2022-07-29T03:40:14;9.50;;;7.93;;
48623;SDS011;34422;45.802;16.114;2022-07-29T03:43:02;15.05;;;8.43;;
48623;SDS011;34422;45.802;16.114;2022-07-29T03:45:32;13.77;;;7.70;;
48623;SDS011;34422;45.802;16.114;2022-07-29T03:48:01;13.18;;;8.95;;
48623;SDS011;34422;45.802;16.114;2022-07-29T03:50:32;11.73;;;8.88;;
48623;SDS011;34422;45.802;16.114;2022-07-29T03:53:00;11.73;;;8.68;;
48623;SDS011;34422;45.802;16.114;2022-07-29T03:55:28;12.88;;;8.05;;
48623;SDS011;34422;45.802;16.114;2022-07-29T03:57:59;8.57;;;7.32;;
48623;SDS011;34422;45.802;16.114;2022-07-29T04:00:28;11.13;;;8.40;;
48623;SDS011;34422;45.802;16.114;2022-07-29T04:02:56;11.27;;;8.80;;
48623;SDS011;34422;45.802;16.114;2022-07-29T04:05:23;12.18;;;8.50;;
48623;SDS011;34422;45.802;16.114;2022-07-29T04:07:50;14.27;;;8.82;;
48623;SDS011;34422;45.802;16.114;2022-07-29T04:10:17;18.83;;;9.40;;
48623;SDS011;34422;45.802;16.114;2022-07-29T04:12:43;26.67;;;10.68;;
48623;SDS011;34422;45.802;16.114;2022-07-29T04:15:10;41.55;;;13.35;;
48623;SDS011;34422;45.802;16.114;2022-07-29T04:17:38;32.05;;;10.48;;
48623;SDS011;34422;45.802;16.114;2022-07-29T04:20:05;28.23;;;11.00;;
48623;SDS011;34422;45.802;16.114;2022-07-29T04:22:32;24.27;;;10.65;;
48623;SDS011;34422;45.802;16.114;2022-07-29T04:25:00;27.63;;;9.43;;
48623;SDS011;34422;45.802;16.114;2022-07-29T04:27:27;24.95;;;9.80;;
48623;SDS011;34422;45.802;16.114;2022-07-29T04:29:53;24.20;;;9.98;;
48623;SDS011;34422;45.802;16.114;2022-07-29T04:32:20;27.35;;;9.65;;
48623;SDS011;34422;45.802;16.114;2022-07-29T04:34:47;17.45;;;7.43;;
48623;SDS011;34422;45.802;16.114;2022-07-29T04:37:14;21.02;;;7.65;;
48623;SDS011;34422;45.802;16.114;2022-07-29T04:39:40;17.77;;;6.53;;
48623;SDS011;34422;45.802;16.114;2022-07-29T04:42:07;13.43;;;6.68;;
48623;SDS011;34422;45.802;16.114;2022-07-29T04:44:34;12.93;;;6.22;;
48623;SDS011;34422;45.802;16.114;2022-07-29T04:47:01;13.98;;;6.22;;
48623;SDS011;34422;45.802;16.114;2022-07-29T04:49:28;10.73;;;6.00;;
48623;SDS011;34422;45.802;16.114;2022-07-29T04:51:55;7.10;;;5.30;;
48623;SDS011;34422;45.802;16.114;2022-07-29T04:54:23;9.77;;;4.82;;
48623;SDS011;34422;45.802;16.114;2022-07-29T04:56:49;7.30;;;5.15;;
48623;SDS011;34422;45.802;16.114;2022-07-29T04:59:16;8.30;;;4.93;;
48623;SDS011;34422;45.802;16.114;2022-07-29T05:01:43;6.82;;;4.93;;
48623;SDS011;34422;45.802;16.114;2022-07-29T05:04:10;8.45;;;5.05;;
48623;SDS011;34422;45.802;16.114;2022-07-29T05:06:36;6.82;;;4.85;;
48623;SDS011;34422;45.802;16.114;2022-07-29T05:09:03;15.52;;;5.82;;
48623;SDS011;34422;45.802;16.114;2022-07-29T05:11:30;19.00;;;6.72;;
48623;SDS011;34422;45.802;16.114;2022-07-29T05:13:57;40.42;;;7.35;;
48623;SDS011;34422;45.802;16.114;2022-07-29T05:16:23;21.58;;;6.30;;
48623;SDS011;34422;45.802;16.114;2022-07-29T05:18:50;13.45;;;5.47;;
48623;SDS011;34422;45.802;16.114;2022-07-29T05:21:17;12.50;;;4.65;;
48623;SDS011;34422;45.802;16.114;2022-07-29T05:23:43;12.45;;;4.28;;
48623;SDS011;34422;45.802;16.114;2022-07-29T05:26:10;9.50;;;4.78;;
48623;SDS011;34422;45.802;16.114;2022-07-29T05:28:37;12.18;;;4.90;;
48623;SDS011;34422;45.802;16.114;2022-07-29T05:31:04;20.30;;;6.00;;
48623;SDS011;34422;45.802;16.114;2022-07-29T05:33:30;19.80;;;5.50;;
48623;SDS011;34422;45.802;16.114;2022-07-29T05:35:59;28.00;;;5.55;;
48623;SDS011;34422;45.802;16.114;2022-07-29T05:38:26;13.07;;;4.55;;
48623;SDS011;34422;45.802;16.114;2022-07-29T05:40:55;13.48;;;5.65;;
48623;SDS011;34422;45.802;16.114;2022-07-29T05:43:24;15.52;;;5.10;;
48623;SDS011;34422;45.802;16.114;2022-07-29T05:45:51;15.68;;;5.22;;
48623;SDS011;34422;45.802;16.114;2022-07-29T05:48:17;10.50;;;5.10;;
48623;SDS011;34422;45.802;16.114;2022-07-29T05:50:44;20.02;;;6.13;;
48623;SDS011;34422;45.802;16.114;2022-07-29T05:53:11;12.00;;;4.78;;
48623;SDS011;34422;45.802;16.114;2022-07-29T05:55:37;12.30;;;5.95;;
48623;SDS011;34422;45.802;16.114;2022-07-29T05:58:04;12.93;;;5.25;;
48623;SDS011;34422;45.802;16.114;2022-07-29T06:00:32;17.73;;;5.75;;
48623;SDS011;34422;45.802;16.114;2022-07-29T06:02:58;28.90;;;6.30;;
48623;SDS011;34422;45.802;16.114;2022-07-29T06:05:25;16.25;;;5.00;;
48623;SDS011;34422;45.802;16.114;2022-07-29T06:07:52;10.88;;;5.15;;
48623;SDS011;34422;45.802;16.114;2022-07-29T06:10:19;10.30;;;5.00;;
48623;SDS011;34422;45.802;16.114;2022-07-29T06:12:46;13.88;;;4.32;;
48623;SDS011;34422;45.802;16.114;2022-07-29T06:15:12;7.90;;;4.00;;
48623;SDS011;34422;45.802;16.114;2022-07-29T06:17:39;7.53;;;3.85;;
48623;SDS011;34422;45.802;16.114;2022-07-29T06:20:06;8.77;;;4.18;;
48623;SDS011;34422;45.802;16.114;2022-07-29T06:22:33;8.23;;;4.18;;
48623;SDS011;34422;45.802;16.114;2022-07-29T06:25:01;12.38;;;4.93;;
48623;SDS011;34422;45.802;16.114;2022-07-29T06:27:28;8.70;;;4.90;;
48623;SDS011;34422;45.802;16.114;2022-07-29T06:29:55;8.15;;;5.90;;
48623;SDS011;34422;45.802;16.114;2022-07-29T06:32:22;10.52;;;4.90;;
48623;SDS011;34422;45.802;16.114;2022-07-29T06:34:49;8.02;;;5.47;;
48623;SDS011;34422;45.802;16.114;2022-07-29T06:37:16;7.32;;;4.78;;
48623;SDS011;34422;45.802;16.114;2022-07-29T06:39:44;6.95;;;4.18;;
48623;SDS011;34422;45.802;16.114;2022-07-29T06:42:10;9.68;;;4.90;;
48623;SDS011;34422;45.802;16.114;2022-07-29T06:44:37;6.88;;;4.30;;
48623;SDS011;34422;45.802;16.114;2022-07-29T06:47:04;8.02;;;4.35;;
48623;SDS011;34422;45.802;16.114;2022-07-29T06:49:31;8.50;;;4.13;;
48623;SDS011;34422;45.802;16.114;2022-07-29T06:51:57;8.05;;;3.92;;
48623;SDS011;34422;45.802;16.114;2022-07-29T06:54:24;9.60;;;4.05;;
48623;SDS011;34422;45.802;16.114;2022-07-29T06:56:51;6.40;;;3.58;;
48623;SDS011;34422;45.802;16.114;2022-07-29T06:59:19;6.32;;;4.20;;
48623;SDS011;34422;45.802;16.114;2022-07-29T07:01:46;6.35;;;3.55;;
48623;SDS011;34422;45.802;16.114;2022-07-29T07:04:13;10.60;;;4.18;;
48623;SDS011;34422;45.802;16.114;2022-07-29T07:06:40;8.07;;;3.58;;
48623;SDS011;34422;45.802;16.114;2022-07-29T07:09:07;12.05;;;4.03;;
48623;SDS011;34422;45.802;16.114;2022-07-29T07:11:34;10.90;;;3.90;;
48623;SDS011;34422;45.802;16.114;2022-07-29T07:14:01;10.63;;;3.85;;
48623;SDS011;34422;45.802;16.114;2022-07-29T07:16:29;6.90;;;3.80;;
48623;SDS011;34422;45.802;16.114;2022-07-29T07:18:56;8.25;;;4.30;;
48623;SDS011;34422;45.802;16.114;2022-07-29T07:21:23;9.18;;;3.92;;
48623;SDS011;34422;45.802;16.114;2022-07-29T07:23:49;9.35;;;3.55;;
48623;SDS011;34422;45.802;16.114;2022-07-29T07:26:16;8.93;;;3.85;;
48623;SDS011;34422;45.802;16.114;2022-07-29T07:28:43;8.13;;;3.80;;
48623;SDS011;34422;45.802;16.114;2022-07-29T07:31:10;9.85;;;4.43;;
48623;SDS011;34422;45.802;16.114;2022-07-29T07:33:37;5.78;;;3.78;;
48623;SDS011;34422;45.802;16.114;2022-07-29T07:36:04;6.03;;;4.32;;
48623;SDS011;34422;45.802;16.114;2022-07-29T07:38:32;10.77;;;4.18;;
48623;SDS011;34422;45.802;16.114;2022-07-29T07:40:59;11.00;;;4.20;;
48623;SDS011;34422;45.802;16.114;2022-07-29T07:43:27;9.15;;;3.97;;
48623;SDS011;34422;45.802;16.114;2022-07-29T07:45:54;8.75;;;4.03;;
48623;SDS011;34422;45.802;16.114;2022-07-29T07:48:20;6.63;;;3.97;;
48623;SDS011;34422;45.802;16.114;2022-07-29T07:50:47;7.72;;;4.30;;
48623;SDS011;34422;45.802;16.114;2022-07-29T07:53:15;13.85;;;4.35;;
48623;SDS011;34422;45.802;16.114;2022-07-29T07:55:42;7.00;;;4.10;;
48623;SDS011;34422;45.802;16.114;2022-07-29T07:58:09;7.93;;;4.20;;
48623;SDS011;34422;45.802;16.114;2022-07-29T08:00:36;8.95;;;4.18;;
48623;SDS011;34422;45.802;16.114;2022-07-29T08:03:03;8.02;;;4.38;;
48623;SDS011;34422;45.802;16.114;2022-07-29T08:05:30;7.40;;;3.95;;
48623;SDS011;34422;45.802;16.114;2022-07-29T08:07:57;10.52;;;7.38;;
48623;SDS011;34422;45.802;16.114;2022-07-29T08:10:24;9.45;;;4.20;;
48623;SDS011;34422;45.802;16.114;2022-07-29T08:13:10;15.50;;;10.38;;
48623;SDS011;34422;45.802;16.114;2022-07-29T08:15:39;15.70;;;9.70;;
48623;SDS011;34422;45.802;16.114;2022-07-29T08:18:08;6.07;;;3.70;;
48623;SDS011;34422;45.802;16.114;2022-07-29T08:20:35;12.20;;;3.70;;
48623;SDS011;34422;45.802;16.114;2022-07-29T08:23:05;5.38;;;3.60;;
48623;SDS011;34422;45.802;16.114;2022-07-29T08:25:33;7.97;;;3.50;;
48623;SDS011;34422;45.802;16.114;2022-07-29T08:27:59;7.45;;;3.60;;
48623;SDS011;34422;45.802;16.114;2022-07-29T08:30:26;7.30;;;4.30;;
48623;SDS011;34422;45.802;16.114;2022-07-29T08:32:53;7.05;;;3.50;;
48623;SDS011;34422;45.802;16.114;2022-07-29T08:35:21;8.40;;;3.50;;
48623;SDS011;34422;45.802;16.114;2022-07-29T08:37:48;7.72;;;3.55;;
48623;SDS011;34422;45.802;16.114;2022-07-29T08:40:15;12.10;;;4.00;;
48623;SDS011;34422;45.802;16.114;2022-07-29T08:42:42;7.15;;;3.50;;
48623;SDS011;34422;45.802;16.114;2022-07-29T08:45:09;10.55;;;3.00;;
48623;SDS011;34422;45.802;16.114;2022-07-29T08:47:37;6.80;;;4.00;;
48623;SDS011;34422;45.802;16.114;2022-07-29T08:50:06;7.65;;;3.47;;
48623;SDS011;34422;45.802;16.114;2022-07-29T08:52:39;12.13;;;4.10;;
48623;SDS011;34422;45.802;16.114;2022-07-29T08:55:08;8.50;;;3.95;;
48623;SDS011;34422;45.802;16.114;2022-07-29T08:57:36;5.95;;;3.05;;
48623;SDS011;34422;45.802;16.114;2022-07-29T09:00:05;10.23;;;4.47;;
48623;SDS011;34422;45.802;16.114;2022-07-29T09:02:35;5.40;;;2.50;;
48623;SDS011;34422;45.802;16.114;2022-07-29T09:05:06;5.35;;;3.08;;
48623;SDS011;34422;45.802;16.114;2022-07-29T09:07:34;6.70;;;2.95;;
48623;SDS011;34422;45.802;16.114;2022-07-29T09:10:03;6.13;;;3.17;;
48623;SDS011;34422;45.802;16.114;2022-07-29T09:12:30;5.88;;;3.22;;
48623;SDS011;34422;45.802;16.114;2022-07-29T09:14:57;6.55;;;2.95;;
48623;SDS011;34422;45.802;16.114;2022-07-29T09:17:39;6.28;;;3.25;;
48623;SDS011;34422;45.802;16.114;2022-07-29T09:20:21;5.65;;;2.50;;
48623;SDS011;34422;45.802;16.114;2022-07-29T09:22:49;9.23;;;3.30;;
48623;SDS011;34422;45.802;16.114;2022-07-29T09:25:34;9.65;;;3.20;;
48623;SDS011;34422;45.802;16.114;2022-07-29T09:28:15;6.55;;;3.20;;
48623;SDS011;34422;45.802;16.114;2022-07-29T09:30:49;6.10;;;2.45;;
48623;SDS011;34422;45.802;16.114;2022-07-29T09:33:18;6.88;;;2.70;;
48623;SDS011;34422;45.802;16.114;2022-07-29T09:35:45;6.03;;;2.67;;
48623;SDS011;34422;45.802;16.114;2022-07-29T09:38:12;7.93;;;2.80;;
48623;SDS011;34422;45.802;16.114;2022-07-29T09:40:40;4.95;;;2.47;;
48623;SDS011;34422;45.802;16.114;2022-07-29T09:43:10;5.50;;;3.22;;
48623;SDS011;34422;45.802;16.114;2022-07-29T09:45:38;9.75;;;3.15;;
48623;SDS011;34422;45.802;16.114;2022-07-29T09:48:15;5.13;;;2.65;;
48623;SDS011;34422;45.802;16.114;2022-07-29T09:50:45;5.40;;;2.92;;
48623;SDS011;34422;45.802;16.114;2022-07-29T09:53:29;7.13;;;2.92;;
48623;SDS011;34422;45.802;16.114;2022-07-29T09:55:56;6.25;;;2.83;;
48623;SDS011;34422;45.802;16.114;2022-07-29T09:58:23;7.50;;;3.03;;
48623;SDS011;34422;45.802;16.114;2022-07-29T10:00:50;8.45;;;2.70;;
48623;SDS011;34422;45.802;16.114;2022-07-29T10:03:18;6.85;;;3.00;;
48623;SDS011;34422;45.802;16.114;2022-07-29T10:05:45;8.27;;;2.90;;
48623;SDS011;34422;45.802;16.114;2022-07-29T10:08:29;5.93;;;3.38;;
48623;SDS011;34422;45.802;16.114;2022-07-29T10:11:14;6.07;;;3.35;;
48623;SDS011;34422;45.802;16.114;2022-07-29T10:13:43;6.70;;;2.95;;
48623;SDS011;34422;45.802;16.114;2022-07-29T10:16:13;7.65;;;3.25;;
48623;SDS011;34422;45.802;16.114;2022-07-29T10:18:41;9.63;;;3.10;;
48623;SDS011;34422;45.802;16.114;2022-07-29T10:21:09;10.18;;;4.10;;
48623;SDS011;34422;45.802;16.114;2022-07-29T10:23:37;9.65;;;4.60;;
48623;SDS011;34422;45.802;16.114;2022-07-29T10:26:04;7.15;;;3.03;;
48623;SDS011;34422;45.802;16.114;2022-07-29T10:28:31;7.93;;;3.53;;
48623;SDS011;34422;45.802;16.114;2022-07-29T10:31:04;8.90;;;3.38;;
48623;SDS011;34422;45.802;16.114;2022-07-29T10:40:06;8.73;;;3.47;;
48623;SDS011;34422;45.802;16.114;2022-07-29T10:43:21;7.53;;;3.03;;
48623;SDS011;34422;45.802;16.114;2022-07-29T10:45:54;6.95;;;3.15;;
48623;SDS011;34422;45.802;16.114;2022-07-29T10:48:24;9.35;;;3.47;;
48623;SDS011;34422;45.802;16.114;2022-07-29T10:51:01;8.20;;;3.13;;
48623;SDS011;34422;45.802;16.114;2022-07-29T10:53:49;11.13;;;3.15;;
48623;SDS011;34422;45.802;16.114;2022-07-29T10:56:30;6.25;;;3.15;;
48623;SDS011;34422;45.802;16.114;2022-07-29T11:01:47;5.03;;;2.55;;
48623;SDS011;34422;45.802;16.114;2022-07-29T11:04:14;4.60;;;2.60;;
48623;SDS011;34422;45.802;16.114;2022-07-29T11:09:26;7.70;;;2.95;;
48623;SDS011;34422;45.802;16.114;2022-07-29T11:11:54;6.72;;;3.33;;
48623;SDS011;34422;45.802;16.114;2022-07-29T11:17:20;7.97;;;3.00;;
48623;SDS011;34422;45.802;16.114;2022-07-29T11:19:47;5.00;;;3.10;;
48623;SDS011;34422;45.802;16.114;2022-07-29T11:22:32;5.72;;;3.00;;
48623;SDS011;34422;45.802;16.114;2022-07-29T11:25:13;7.10;;;3.10;;
48623;SDS011;34422;45.802;16.114;2022-07-29T11:27:42;4.97;;;2.88;;
48623;SDS011;34422;45.802;16.114;2022-07-29T11:30:10;5.15;;;3.33;;
48623;SDS011;34422;45.802;16.114;2022-07-29T11:32:39;6.93;;;3.67;;
48623;SDS011;34422;45.802;16.114;2022-07-29T11:37:38;4.82;;;2.80;;
48623;SDS011;34422;45.802;16.114;2022-07-29T11:45:02;6.70;;;3.30;;
48623;SDS011;34422;45.802;16.114;2022-07-29T11:47:32;7.70;;;3.60;;
48623;SDS011;34422;45.802;16.114;2022-07-29T11:50:01;7.90;;;3.40;;
48623;SDS011;34422;45.802;16.114;2022-07-29T11:52:39;10.32;;;3.50;;
48623;SDS011;34422;45.802;16.114;2022-07-29T11:55:14;9.98;;;3.58;;
48623;SDS011;34422;45.802;16.114;2022-07-29T11:57:49;7.45;;;3.40;;
48623;SDS011;34422;45.802;16.114;2022-07-29T12:00:23;14.00;;;9.20;;
48623;SDS011;34422;45.802;16.114;2022-07-29T12:02:57;8.65;;;5.70;;
48623;SDS011;34422;45.802;16.114;2022-07-29T12:05:58;13.23;;;3.70;;
48623;SDS011;34422;45.802;16.114;2022-07-29T12:08:19;7.60;;;3.85;;
48623;SDS011;34422;45.802;16.114;2022-07-29T12:10:49;10.25;;;3.60;;
48623;SDS011;34422;45.802;16.114;2022-07-29T12:13:17;8.75;;;3.60;;
48623;SDS011;34422;45.802;16.114;2022-07-29T12:15:52;9.07;;;4.63;;
48623;SDS011;34422;45.802;16.114;2022-07-29T12:18:20;9.88;;;3.92;;
48623;SDS011;34422;45.802;16.114;2022-07-29T12:20:47;6.57;;;3.70;;
48623;SDS011;34422;45.802;16.114;2022-07-29T12:23:15;7.35;;;4.05;;
48623;SDS011;34422;45.802;16.114;2022-07-29T12:25:43;7.75;;;3.75;;
48623;SDS011;34422;45.802;16.114;2022-07-29T12:28:11;7.63;;;3.60;;
48623;SDS011;34422;45.802;16.114;2022-07-29T12:30:46;15.70;;;4.00;;
48623;SDS011;34422;45.802;16.114;2022-07-29T12:35:46;7.32;;;3.35;;
48623;SDS011;34422;45.802;16.114;2022-07-29T12:38:15;7.07;;;3.50;;
48623;SDS011;34422;45.802;16.114;2022-07-29T12:40:43;11.55;;;3.95;;
48623;SDS011;34422;45.802;16.114;2022-07-29T12:43:13;8.43;;;3.83;;
48623;SDS011;34422;45.802;16.114;2022-07-29T12:45:43;7.10;;;4.07;;
48623;SDS011;34422;45.802;16.114;2022-07-29T12:48:12;9.85;;;4.00;;
48623;SDS011;34422;45.802;16.114;2022-07-29T12:50:52;8.48;;;3.20;;
48623;SDS011;34422;45.802;16.114;2022-07-29T12:53:21;5.22;;;3.58;;
48623;SDS011;34422;45.802;16.114;2022-07-29T12:55:48;5.55;;;3.63;;
48623;SDS011;34422;45.802;16.114;2022-07-29T13:01:11;6.20;;;3.47;;
48623;SDS011;34422;45.802;16.114;2022-07-29T13:03:44;7.05;;;3.42;;
48623;SDS011;34422;45.802;16.114;2022-07-29T13:11:38;10.65;;;3.95;;
48623;SDS011;34422;45.802;16.114;2022-07-29T13:14:34;6.75;;;3.40;;
48623;SDS011;34422;45.802;16.114;2022-07-29T13:19:45;8.50;;;4.38;;
48623;SDS011;34422;45.802;16.114;2022-07-29T13:22:16;7.63;;;3.80;;
48623;SDS011;34422;45.802;16.114;2022-07-29T13:24:45;7.10;;;3.80;;
48623;SDS011;34422;45.802;16.114;2022-07-29T13:27:14;7.63;;;4.03;;
48623;SDS011;34422;45.802;16.114;2022-07-29T13:29:42;7.22;;;3.63;;
48623;SDS011;34422;45.802;16.114;2022-07-29T13:32:09;15.15;;;4.28;;
48623;SDS011;34422;45.802;16.114;2022-07-29T13:34:35;7.15;;;3.70;;
48623;SDS011;34422;45.802;16.114;2022-07-29T13:37:02;6.82;;;3.47;;
48623;SDS011;34422;45.802;16.114;2022-07-29T13:39:29;11.70;;;4.30;;
48623;SDS011;34422;45.802;16.114;2022-07-29T13:41:56;10.57;;;4.05;;
48623;SDS011;34422;45.802;16.114;2022-07-29T13:44:23;7.38;;;3.45;;
48623;SDS011;34422;45.802;16.114;2022-07-29T13:46:49;5.88;;;3.55;;
48623;SDS011;34422;45.802;16.114;2022-07-29T13:49:17;6.38;;;3.63;;
48623;SDS011;34422;45.802;16.114;2022-07-29T13:51:43;6.85;;;3.80;;
48623;SDS011;34422;45.802;16.114;2022-07-29T13:54:10;7.53;;;3.58;;
48623;SDS011;34422;45.802;16.114;2022-07-29T13:56:37;7.30;;;4.05;;
48623;SDS011;34422;45.802;16.114;2022-07-29T13:59:04;8.93;;;4.50;;
48623;SDS011;34422;45.802;16.114;2022-07-29T14:01:30;9.45;;;3.92;;
48623;SDS011;34422;45.802;16.114;2022-07-29T14:03:57;6.03;;;3.50;;
48623;SDS011;34422;45.802;16.114;2022-07-29T14:06:24;8.63;;;4.03;;
48623;SDS011;34422;45.802;16.114;2022-07-29T14:08:51;6.75;;;3.80;;
48623;SDS011;34422;45.802;16.114;2022-07-29T14:11:17;9.35;;;4.18;;
48623;SDS011;34422;45.802;16.114;2022-07-29T14:13:44;7.50;;;3.70;;
48623;SDS011;34422;45.802;16.114;2022-07-29T14:16:11;10.75;;;4.03;;
48623;SDS011;34422;45.802;16.114;2022-07-29T14:18:38;6.82;;;4.07;;
48623;SDS011;34422;45.802;16.114;2022-07-29T14:21:05;6.97;;;3.63;;
48623;SDS011;34422;45.802;16.114;2022-07-29T14:23:32;6.70;;;3.70;;
48623;SDS011;34422;45.802;16.114;2022-07-29T14:25:59;6.47;;;4.25;;
48623;SDS011;34422;45.802;16.114;2022-07-29T14:28:26;7.10;;;3.83;;
48623;SDS011;34422;45.802;16.114;2022-07-29T14:30:53;7.85;;;4.03;;
48623;SDS011;34422;45.802;16.114;2022-07-29T14:33:20;7.22;;;3.80;;
48623;SDS011;34422;45.802;16.114;2022-07-29T14:35:46;7.55;;;3.83;;
48623;SDS011;34422;45.802;16.114;2022-07-29T14:38:13;6.50;;;3.90;;
48623;SDS011;34422;45.802;16.114;2022-07-29T14:40:40;6.50;;;4.07;;
48623;SDS011;34422;45.802;16.114;2022-07-29T14:43:07;5.10;;;3.30;;
48623;SDS011;34422;45.802;16.114;2022-07-29T14:45:33;6.03;;;3.88;;
48623;SDS011;34422;45.802;16.114;2022-07-29T14:48:00;5.97;;;3.95;;
48623;SDS011;34422;45.802;16.114;2022-07-29T14:50:27;11.45;;;3.90;;
48623;SDS011;34422;45.802;16.114;2022-07-29T14:52:54;6.35;;;3.55;;
48623;SDS011;34422;45.802;16.114;2022-07-29T14:55:20;7.07;;;3.83;;
48623;SDS011;34422;45.802;16.114;2022-07-29T14:57:47;8.20;;;4.03;;
48623;SDS011;34422;45.802;16.114;2022-07-29T15:00:16;8.27;;;3.92;;
48623;SDS011;34422;45.802;16.114;2022-07-29T15:05:12;7.50;;;3.78;;
48623;SDS011;34422;45.802;16.114;2022-07-29T15:07:39;7.43;;;3.50;;
48623;SDS011;34422;45.802;16.114;2022-07-29T15:10:05;8.80;;;3.67;;
48623;SDS011;34422;45.802;16.114;2022-07-29T15:12:33;7.80;;;3.92;;
48623;SDS011;34422;45.802;16.114;2022-07-29T15:14:59;6.68;;;3.75;;
48623;SDS011;34422;45.802;16.114;2022-07-29T15:17:26;9.40;;;3.85;;
48623;SDS011;34422;45.802;16.114;2022-07-29T15:19:53;9.00;;;4.05;;
48623;SDS011;34422;45.802;16.114;2022-07-29T15:22:21;18.50;;;3.97;;
48623;SDS011;34422;45.802;16.114;2022-07-29T15:24:48;7.50;;;3.63;;
48623;SDS011;34422;45.802;16.114;2022-07-29T15:27:15;5.65;;;2.97;;
48623;SDS011;34422;45.802;16.114;2022-07-29T15:29:42;7.15;;;3.58;;
48623;SDS011;34422;45.802;16.114;2022-07-29T15:32:10;7.90;;;3.92;;
48623;SDS011;34422;45.802;16.114;2022-07-29T15:34:37;6.22;;;3.92;;
48623;SDS011;34422;45.802;16.114;2022-07-29T15:37:04;6.95;;;3.55;;
48623;SDS011;34422;45.802;16.114;2022-07-29T15:39:31;9.57;;;3.40;;
48623;SDS011;34422;45.802;16.114;2022-07-29T15:41:58;8.65;;;3.47;;
48623;SDS011;34422;45.802;16.114;2022-07-29T15:44:28;7.72;;;3.60;;
48623;SDS011;34422;45.802;16.114;2022-07-29T15:46:56;8.27;;;3.72;;